Time;durP1;ratioP1;P1;durP2;ratioP2;P2;SDS_P1;SDS_P2;PMS_P1;PMS_P2;Temp;Humidity;BMP_temperature;BMP_pressure;BME280_temperature;BME280_humidity;BME280_pressure;Samples;Min_cycle;Max_cycle;Signal;HPM_P1;HPM_P2
2023/11/27 12:19:19;;;;;;;9.80;2.10;;;;;;;1.61;84.12;99373.82;107428;1289;543353;-85
2023/11/27 12:21:52;;;;;;;11.60;1.60;;;;;;;1.62;83.31;99374.02;108125;1277;22578;-86
2023/11/27 12:24:22;;;;;;;7.20;1.60;;;;;;;1.63;82.92;99374.61;107917;1277;24295;-86
2023/11/27 12:26:52;;;;;;;7.40;0.90;;;;;;;1.65;82.10;99370.95;107968;1270;22549;-85
2023/11/27 12:29:22;;;;;;;7.70;1.30;;;;;;;1.68;82.16;99369.77;107907;1277;22548;-85
2023/11/27 12:31:53;;;;;;;9.90;1.80;;;;;;;1.71;82.17;99364.55;107919;1251;207861;-73
2023/11/27 12:34:25;;;;;;;23.60;5.80;;;;;;;1.75;82.11;99359.61;107602;1267;25109;-72
2023/11/27 12:36:56;;;;;;;19.60;4.60;;;;;;;1.78;81.91;99361.80;107577;1274;22529;-73
2023/11/27 12:39:27;;;;;;;16.50;3.00;;;;;;;1.82;82.45;99354.86;107424;1252;24188;-72
2023/11/27 12:42:01;;;;;;;15.00;3.20;;;;;;;1.85;82.86;99360.34;107981;1267;22577;-72
2023/11/27 12:44:33;;;;;;;12.50;2.30;;;;;;;1.84;82.36;99356.12;111212;1266;23018;-75
2023/11/27 12:47:05;;;;;;;11.30;2.00;;;;;;;1.82;81.86;99359.56;111239;1264;22090;-73
2023/11/27 12:49:35;;;;;;;11.20;1.90;;;;;;;1.81;82.55;99364.00;111297;1267;22129;-74
2023/11/27 12:52:10;;;;;;;14.80;3.00;;;;;;;1.80;82.04;99362.06;111314;1269;22972;-74
2023/11/27 12:54:39;;;;;;;18.10;3.60;;;;;;;1.79;82.07;99357.39;111211;1269;22107;-74
2023/11/27 12:57:10;;;;;;;19.40;4.00;;;;;;;1.77;82.28;99354.63;111230;1267;22147;-74
2023/11/27 12:59:46;;;;;;;11.40;2.10;;;;;;;1.74;82.28;99347.17;111255;1267;22967;-74
2023/11/27 13:02:20;;;;;;;10.80;1.70;;;;;;;1.71;82.14;99340.52;111302;1268;22573;-75
2023/11/27 13:04:53;;;;;;;22.70;3.80;;;;;;;1.69;82.38;99336.00;111359;1262;22923;-75
2023/11/27 13:07:23;;;;;;;17.60;4.10;;;;;;;1.65;82.06;99333.13;111343;1262;23119;-75
2023/11/27 13:09:55;;;;;;;19.40;4.20;;;;;;;1.62;81.70;99335.10;111197;1269;22542;-72
2023/11/27 13:12:25;;;;;;;34.10;10.90;;;;;;;1.61;81.80;99325.64;111306;1269;22212;-75
2023/11/27 13:14:55;;;;;;;48.30;18.00;;;;;;;1.59;81.53;99323.83;111291;1266;22148;-75
2023/11/27 13:17:24;;;;;;;44.00;15.10;;;;;;;1.56;81.44;99322.65;111244;1264;23304;-74
2023/11/27 13:19:55;;;;;;;24.80;6.20;;;;;;;1.55;81.83;99314.11;111255;1263;22146;-73
2023/11/27 13:22:31;;;;;;;26.50;5.30;;;;;;;1.54;81.76;99309.42;111342;1262;22210;-74
2023/11/27 13:25:05;;;;;;;28.20;7.10;;;;;;;1.54;81.75;99302.05;111199;1269;22096;-73
2023/11/27 13:27:44;;;;;;;31.00;7.00;;;;;;;1.53;81.80;99293.59;111212;1269;22106;-75
2023/11/27 13:30:23;;;;;;;24.10;6.40;;;;;;;1.54;81.56;99287.44;111176;1264;23051;-75
2023/11/27 13:32:53;;;;;;;21.00;4.80;;;;;;;1.54;81.78;99282.95;111185;1266;23063;-73
2023/11/27 13:35:29;;;;;;;19.40;4.40;;;;;;;1.53;81.81;99283.07;111223;1267;22967;-74
2023/11/27 13:38:00;;;;;;;20.00;3.90;;;;;;;1.54;82.06;99281.15;111232;1262;22146;-75
2023/11/27 13:40:32;;;;;;;19.20;3.90;;;;;;;1.54;81.58;99282.48;111252;1264;22181;-73
2023/11/27 13:43:06;;;;;;;20.20;3.80;;;;;;;1.54;81.57;99278.40;111281;1269;22087;-75
2023/11/27 13:45:36;;;;;;;24.40;5.50;;;;;;;1.53;81.70;99275.61;111179;1270;22081;-75
2023/11/27 13:48:12;;;;;;;21.00;5.00;;;;;;;1.52;81.26;99280.67;111217;1269;22098;-74
2023/11/27 13:50:43;;;;;;;20.40;4.80;;;;;;;1.49;81.38;99281.95;111236;1269;22861;-75
2023/11/27 13:53:15;;;;;;;19.90;5.00;;;;;;;1.48;81.45;99274.27;111211;1269;22115;-74
2023/11/27 13:55:47;;;;;;;21.80;4.70;;;;;;;1.47;81.45;99277.88;111215;1266;22067;-73
2023/11/27 13:58:22;;;;;;;21.70;5.40;;;;;;;1.46;81.37;99275.02;111256;1263;22099;-73
2023/11/27 14:00:52;;;;;;;24.10;6.60;;;;;;;1.46;81.35;99270.31;111258;1269;22172;-75
2023/11/27 14:03:26;;;;;;;40.90;11.50;;;;;;;1.46;81.28;99268.81;111259;1262;23007;-74
2023/11/27 14:05:56;;;;;;;37.30;11.60;;;;;;;1.45;80.69;99265.64;111217;1269;22181;-74
2023/11/27 14:08:39;;;;;;;46.00;14.20;;;;;;;1.40;80.76;99263.02;111185;1263;22103;-73
2023/11/27 14:11:18;;;;;;;50.10;16.00;;;;;;;1.37;80.65;99259.74;111179;1264;22321;-74
2023/11/27 14:13:49;;;;;;;37.60;13.20;;;;;;;1.36;80.90;99252.58;111192;1269;22946;-74
2023/11/27 14:16:20;;;;;;;31.30;9.80;;;;;;;1.35;81.07;99248.50;111233;1264;22133;-74
2023/11/27 14:20:45;;;;;;;29.50;10.90;;;;;;;1.34;81.10;99243.59;111227;1269;22206;-75
2023/11/27 14:24:39;;;;;;;20.10;5.50;;;;;;;1.32;81.53;99234.06;110904;1269;22621;-74
2023/11/27 14:27:26;;;;;;;13.90;4.20;;;;;;;1.30;81.51;99231.08;111238;1269;22939;-74
2023/11/27 14:29:55;;;;;;;14.90;4.30;;;;;;;1.28;81.60;99229.17;111222;1269;22143;-74
2023/11/27 14:32:25;;;;;;;16.40;4.60;;;;;;;1.26;81.35;99225.79;111210;1263;22999;-74
2023/11/27 14:34:54;;;;;;;23.20;6.70;;;;;;;1.21;81.11;99221.85;111190;1264;22355;-74
2023/11/27 14:37:24;;;;;;;38.50;11.10;;;;;;;1.17;80.96;99216.25;111221;1269;22600;-75
2023/11/27 14:39:54;;;;;;;26.00;9.70;;;;;;;1.14;80.94;99211.08;111307;1269;22164;-74
2023/11/27 14:42:24;;;;;;;31.70;11.20;;;;;;;1.10;80.74;99208.99;111220;1263;22133;-73
2023/11/27 14:44:54;;;;;;;30.90;10.10;;;;;;;1.08;80.80;99212.36;111293;1263;22162;-73
2023/11/27 14:47:24;;;;;;;32.20;11.40;;;;;;;1.06;80.54;99214.95;111258;1264;22824;-74
2023/11/27 14:49:53;;;;;;;30.00;10.60;;;;;;;1.04;80.74;99214.15;111288;1269;22171;-75
2023/11/27 14:52:23;;;;;;;31.50;10.20;;;;;;;1.01;80.89;99210.16;111220;1263;22974;-75
2023/11/27 14:54:53;;;;;;;32.80;11.10;;;;;;;0.99;81.02;99211.55;111191;1270;21793;-73
2023/11/27 14:57:26;;;;;;;25.90;9.80;;;;;;;1.00;81.06;99207.52;111228;1266;22159;-74
2023/11/27 14:59:56;;;;;;;28.00;9.60;;;;;;;0.97;80.92;99204.79;111232;1264;22855;-74
2023/11/27 15:02:28;;;;;;;;;;;;;;;0.94;81.01;99206.52;111165;1263;23207;-74
2023/11/27 15:04:57;;;;;;;24.80;9.90;;;;;;;0.92;81.13;99207.05;111209;1269;22876;-75
2023/11/27 15:07:27;;;;;;;41.70;15.70;;;;;;;0.93;81.38;99205.94;111222;1262;23203;-76
2023/11/27 15:09:57;;;;;;;35.50;15.00;;;;;;;0.94;81.47;99202.61;111171;1270;22829;-74
2023/11/27 15:12:32;;;;;;;43.00;16.20;;;;;;;0.93;81.64;99196.55;111221;1266;22210;-77
2023/11/27 15:15:03;;;;;;;43.70;18.20;;;;;;;0.92;81.82;99186.95;111194;1264;22403;-75
2023/11/27 15:17:34;;;;;;;38.20;18.30;;;;;;;0.90;81.68;99185.13;111227;1263;22185;-75
2023/11/27 15:20:06;;;;;;;43.50;16.30;;;;;;;0.87;81.78;99184.05;111252;1269;22160;-76
2023/11/27 15:22:36;;;;;;;41.40;17.50;;;;;;;0.83;81.61;99174.98;111266;1263;22976;-77
2023/11/27 15:25:07;;;;;;;45.10;19.70;;;;;;;0.79;81.69;99172.27;111294;1269;22146;-80
2023/11/27 15:27:37;;;;;;;60.60;26.20;;;;;;;0.75;81.63;99170.83;111204;1269;22715;-76
2023/11/27 15:30:09;;;;;;;46.80;19.10;;;;;;;0.72;81.57;99166.92;111198;1262;22122;-76
2023/11/27 15:32:39;;;;;;;42.80;15.30;;;;;;;0.69;81.90;99165.44;111219;1264;22155;-76
2023/11/27 15:35:11;;;;;;;41.30;15.50;;;;;;;0.68;81.90;99165.99;111247;1262;22134;-75
2023/11/27 15:37:41;;;;;;;55.90;23.40;;;;;;;0.65;81.72;99166.48;111287;1269;22344;-77
2023/11/27 15:40:14;;;;;;;73.40;30.70;;;;;;;0.63;81.75;99165.86;111210;1263;22382;-76
2023/11/27 15:42:45;;;;;;;74.70;31.40;;;;;;;0.62;81.75;99159.29;111195;1254;23337;-76
2023/11/27 15:45:15;;;;;;;63.70;28.70;;;;;;;0.58;81.68;99150.06;111212;1263;22920;-75
2023/11/27 15:47:45;;;;;;;56.10;25.10;;;;;;;0.57;81.68;99142.88;111159;1266;22123;-75
2023/11/27 15:50:14;;;;;;;46.30;19.70;;;;;;;0.56;81.82;99135.45;111170;1266;22811;-75
2023/11/27 15:52:46;;;;;;;46.40;18.70;;;;;;;0.56;81.84;99139.38;111170;1263;22980;-76
2023/11/27 15:55:17;;;;;;;49.70;20.20;;;;;;;0.57;82.25;99135.90;111224;1264;22489;-74
2023/11/27 15:57:47;;;;;;;58.10;22.70;;;;;;;0.58;82.05;99133.06;111295;1269;22561;-77
2023/11/27 16:00:18;;;;;;;58.30;23.00;;;;;;;0.57;82.19;99131.67;111190;1263;22127;-75
2023/11/27 16:02:49;;;;;;;50.40;20.40;;;;;;;0.56;82.39;99132.40;111238;1262;23182;-75
2023/11/27 16:05:19;;;;;;;64.10;22.60;;;;;;;0.57;82.33;99134.34;111222;1262;23109;-75
2023/11/27 16:07:48;;;;;;;86.80;29.40;;;;;;;0.58;82.27;99138.95;111275;1262;22098;-76
2023/11/27 16:10:21;;;;;;;97.60;36.90;;;;;;;0.58;82.27;99147.80;111159;1263;22201;-77
2023/11/27 16:12:51;;;;;;;135.80;54.00;;;;;;;0.60;82.50;99143.13;111261;1269;22195;-76
2023/11/27 16:15:21;;;;;;;132.80;57.70;;;;;;;0.59;82.09;99140.31;111288;1266;22170;-76
2023/11/27 16:17:52;;;;;;;124.40;52.00;;;;;;;0.58;82.23;99136.73;111273;1265;22422;-76
2023/11/27 16:20:21;;;;;;;109.80;46.70;;;;;;;0.57;82.20;99128.70;111273;1263;22163;-75
2023/11/27 16:22:52;;;;;;;103.90;39.50;;;;;;;0.56;82.09;99120.50;111235;1266;22776;-76
2023/11/27 16:25:22;;;;;;;81.10;33.00;;;;;;;0.54;82.19;99117.54;111179;1263;22847;-75
2023/11/27 16:27:52;;;;;;;56.20;20.10;;;;;;;0.53;81.96;99118.92;111188;1261;22901;-76
2023/11/27 16:30:22;;;;;;;70.00;27.50;;;;;;;0.51;81.91;99118.84;111198;1269;22088;-76
2023/11/27 16:32:52;;;;;;;80.30;32.70;;;;;;;0.49;81.96;99111.98;111242;1269;22171;-77
2023/11/27 16:35:22;;;;;;;75.50;34.10;;;;;;;0.50;82.61;99101.27;111211;1254;22255;-75
2023/11/27 16:37:52;;;;;;;83.70;34.60;;;;;;;0.52;82.75;99094.55;111243;1269;22123;-75
2023/11/27 16:40:21;;;;;;;77.80;33.50;;;;;;;0.52;82.66;99087.64;111258;1269;22080;-73
2023/11/27 16:42:52;;;;;;;66.20;27.80;;;;;;;0.51;82.46;99080.23;111251;1269;22159;-74
2023/11/27 16:45:24;;;;;;;69.70;27.60;;;;;;;0.49;82.39;99072.38;111208;1263;22252;-77
2023/11/27 16:47:56;;;;;;;63.70;26.20;;;;;;;0.48;82.58;99067.61;111243;1263;22469;-76
2023/11/27 16:50:27;;;;;;;85.00;36.80;;;;;;;0.47;82.58;99058.16;111235;1263;22648;-76
2023/11/27 16:52:57;;;;;;;84.10;36.00;;;;;;;0.45;82.66;99053.11;111247;1263;22235;-74
2023/11/27 16:55:30;;;;;;;64.20;27.80;;;;;;;0.44;82.84;99049.16;111213;1263;23362;-75
2023/11/27 16:58:04;;;;;;;65.70;27.30;;;;;;;0.43;82.82;99047.14;111194;1269;22169;-76
2023/11/27 17:00:36;;;;;;;53.70;24.40;;;;;;;0.44;82.80;99051.89;111209;1263;22243;-75
2023/11/27 17:03:07;;;;;;;57.80;24.50;;;;;;;0.44;82.80;99049.53;111178;1269;22074;-75
2023/11/27 17:05:37;;;;;;;57.00;22.70;;;;;;;0.45;83.11;99050.77;111313;1269;22216;-74
2023/11/27 17:08:09;;;;;;;59.30;25.50;;;;;;;0.46;83.04;99046.55;111183;1262;22531;-76
2023/11/27 17:10:40;;;;;;;51.50;23.20;;;;;;;0.47;83.14;99042.55;111226;1262;22150;-75
2023/11/27 17:13:11;;;;;;;45.20;19.40;;;;;;;0.46;83.02;99039.89;111236;1263;22116;-75
2023/11/27 17:15:43;;;;;;;45.20;22.00;;;;;;;0.47;83.32;99033.11;111226;1262;22103;-74
2023/11/27 17:18:14;;;;;;;49.50;22.60;;;;;;;0.48;83.14;99031.05;111230;1262;22125;-75
2023/11/27 17:20:45;;;;;;;65.30;28.00;;;;;;;0.46;83.12;99032.38;111293;1267;22157;-76
2023/11/27 17:23:15;;;;;;;54.60;22.60;;;;;;;0.45;83.02;99031.08;111271;1262;22370;-78
2023/11/27 17:25:46;;;;;;;50.00;21.60;;;;;;;0.42;83.17;99029.22;111236;1266;22241;-75
2023/11/27 17:28:15;;;;;;;46.30;19.30;;;;;;;0.39;83.01;99027.48;111208;1269;22258;-77
2023/11/27 17:30:45;;;;;;;37.20;17.80;;;;;;;0.38;83.03;99028.71;111235;1261;22211;-75
2023/11/27 17:33:14;;;;;;;48.60;18.40;;;;;;;0.36;82.99;99026.42;111251;1261;22106;-76
2023/11/27 17:35:44;;;;;;;46.90;19.20;;;;;;;0.35;83.23;99021.88;111246;1262;23220;-74
2023/11/27 17:38:15;;;;;;;48.60;19.00;;;;;;;0.36;83.39;99014.10;111231;1262;23027;-74
2023/11/27 17:40:43;;;;;;;;;;;;;;;0.36;83.18;99008.52;111277;1266;22369;-74
2023/11/27 17:43:16;;;;;;;41.30;18.20;;;;;;;0.35;83.34;99006.28;111244;1263;23304;-72
2023/11/27 17:45:47;;;;;;;52.20;21.80;;;;;;;0.34;83.41;98999.02;111217;1269;22108;-73
2023/11/27 17:48:18;;;;;;;53.30;20.70;;;;;;;0.33;83.32;98991.50;111254;1263;22136;-73
2023/11/27 17:50:48;;;;;;;47.70;20.00;;;;;;;0.33;83.57;98986.11;111270;1269;22142;-72
2023/11/27 17:53:20;;;;;;;47.70;18.90;;;;;;;0.32;83.51;98981.36;110550;1269;22676;-75
2023/11/27 17:55:50;;;;;;;49.20;19.70;;;;;;;0.31;83.51;98976.07;108103;1262;22541;-73
2023/11/27 17:58:19;;;;;;;44.70;19.70;;;;;;;0.30;83.42;98972.16;108115;1262;25283;-73
2023/11/27 18:00:52;;;;;;;49.80;19.10;;;;;;;0.29;83.55;98971.02;108000;1262;22797;-74
2023/11/27 18:03:22;;;;;;;45.30;18.90;;;;;;;0.27;83.74;98967.16;107982;1262;26572;-78
2023/11/27 18:05:51;;;;;;;44.80;20.20;;;;;;;0.27;84.05;98963.95;108045;1263;23918;-74
2023/11/27 18:08:21;;;;;;;52.20;24.70;;;;;;;0.27;84.06;98962.47;107932;1262;26038;-74
2023/11/27 18:10:52;;;;;;;87.50;40.30;;;;;;;0.27;84.02;98959.95;108203;1266;23991;-75
2023/11/27 18:13:22;;;;;;;78.70;36.50;;;;;;;0.26;84.07;98960.23;108234;1263;25275;-75
2023/11/27 18:15:52;;;;;;;44.40;21.40;;;;;;;0.27;84.33;98958.80;108301;1262;22455;-75
2023/11/27 18:18:22;;;;;;;38.50;17.00;;;;;;;0.25;83.94;98956.83;108233;1262;23227;-79
2023/11/27 18:20:52;;;;;;;42.80;14.70;;;;;;;0.21;84.04;98953.80;108240;1262;25044;-73
2023/11/27 18:23:22;;;;;;;41.90;16.70;;;;;;;0.20;84.20;98949.45;108257;1262;25315;-73
2023/11/27 18:25:52;;;;;;;44.30;17.30;;;;;;;0.20;84.52;98947.09;108133;1262;23393;-74
2023/11/27 18:28:20;;;;;;;;;;;;;;;0.20;84.47;98940.98;108057;1263;22535;-78
2023/11/27 18:30:50;;;;;;;38.70;15.10;;;;;;;0.18;84.46;98938.30;107994;1263;24186;-74
2023/11/27 18:33:20;;;;;;;40.50;14.80;;;;;;;0.17;84.83;98935.24;108104;1263;22557;-74
2023/11/27 18:35:51;;;;;;;38.60;14.90;;;;;;;0.19;84.63;98924.02;108271;1266;22715;-75
2023/11/27 18:38:22;;;;;;;42.50;17.10;;;;;;;0.20;85.13;98914.33;108086;1263;22541;-76
2023/11/27 18:40:53;;;;;;;44.20;17.40;;;;;;;0.22;85.26;98906.96;108305;1262;22527;-74
2023/11/27 18:43:26;;;;;;;44.50;17.50;;;;;;;0.22;84.85;98903.83;108076;1263;25100;-77
2023/11/27 18:45:56;;;;;;;47.70;18.80;;;;;;;0.21;85.04;98901.58;107983;1269;22568;-78
2023/11/27 18:48:26;;;;;;;46.30;19.70;;;;;;;0.20;85.01;98901.54;108178;1263;22505;-76
2023/11/27 18:50:55;;;;;;;63.70;26.80;;;;;;;0.19;85.03;98897.88;108253;1262;22637;-75
2023/11/27 18:53:25;;;;;;;54.40;20.80;;;;;;;0.18;85.30;98891.73;108281;1262;26227;-78
2023/11/27 18:55:55;;;;;;;55.80;22.60;;;;;;;0.18;85.91;98888.02;107936;1263;22534;-76
2023/11/27 18:58:25;;;;;;;54.10;22.30;;;;;;;0.21;85.66;98886.37;108158;1248;25198;-74
2023/11/27 19:00:54;;;;;;;62.30;23.10;;;;;;;0.19;85.29;98882.27;108135;1262;22563;-73
2023/11/27 19:03:24;;;;;;;47.00;20.80;;;;;;;0.17;85.29;98876.23;108064;1262;22553;-75
2023/11/27 19:05:55;;;;;;;61.00;24.20;;;;;;;0.15;85.62;98871.10;108101;1262;24957;-80
2023/11/27 19:08:24;;;;;;;62.50;26.20;;;;;;;0.16;85.58;98868.97;108141;1254;24222;-78
2023/11/27 19:10:54;;;;;;;82.00;31.10;;;;;;;0.14;85.61;98864.02;108336;1262;22219;-77
2023/11/27 19:13:24;;;;;;;102.10;42.50;;;;;;;0.13;85.81;98856.89;105715;1262;28299;-75
2023/11/27 19:15:56;;;;;;;124.30;52.10;;;;;;;0.14;85.67;98858.46;108005;1262;25482;-75
2023/11/27 19:18:27;;;;;;;95.00;38.30;;;;;;;0.16;86.04;98858.53;111030;1263;22274;-77
2023/11/27 19:20:57;;;;;;;65.40;25.90;;;;;;;0.17;85.97;98857.23;111105;1263;22159;-75
2023/11/27 19:23:28;;;;;;;51.30;22.70;;;;;;;0.19;86.04;98855.62;111098;1263;22056;-76
2023/11/27 19:25:56;;;;;;;;;;;;;;;0.21;85.97;98853.52;111084;1263;22391;-75
2023/11/27 19:28:25;;;;;;;51.80;20.70;;;;;;;0.22;86.14;98853.56;111093;1264;22170;-76
2023/11/27 19:30:56;;;;;;;52.30;21.50;;;;;;;0.23;85.97;98854.52;111087;1262;22720;-75
2023/11/27 19:33:29;;;;;;;52.80;21.40;;;;;;;0.25;86.25;98850.89;111146;1262;22338;-77
2023/11/27 19:36:00;;;;;;;48.00;20.30;;;;;;;0.26;86.18;98852.00;111060;1271;22167;-75
2023/11/27 19:38:31;;;;;;;50.60;20.00;;;;;;;0.28;86.07;98852.71;111020;1269;22283;-77
2023/11/27 19:41:06;;;;;;;55.70;22.90;;;;;;;0.30;85.97;98850.52;111143;1270;22190;-75
2023/11/27 19:43:37;;;;;;;64.00;25.50;;;;;;;0.30;86.05;98852.49;110702;1270;26507;-74
2023/11/27 19:46:10;;;;;;;56.70;25.50;;;;;;;0.30;86.17;98849.19;110861;1263;22251;-77
2023/11/27 19:48:40;;;;;;;57.70;23.50;;;;;;;0.32;86.20;98847.34;111054;1270;22369;-76
2023/11/27 19:51:10;;;;;;;55.20;23.30;;;;;;;0.32;86.20;98843.09;110994;1264;21926;-78
2023/11/27 19:53:40;;;;;;;57.90;24.20;;;;;;;0.35;86.51;98843.05;111023;1263;22336;-76
2023/11/27 19:56:13;;;;;;;55.50;24.20;;;;;;;0.37;86.45;98832.28;111120;1266;22172;-75
2023/11/27 19:58:42;;;;;;;59.80;25.30;;;;;;;0.37;86.35;98825.91;111029;1265;22256;-74
2023/11/27 20:01:13;;;;;;;59.60;21.20;;;;;;;0.37;86.18;98820.42;110887;1263;22600;-75
2023/11/27 20:03:42;;;;;;;49.60;21.50;;;;;;;0.36;86.23;98815.74;110982;1263;22110;-75
2023/11/27 20:06:12;;;;;;;59.20;23.30;;;;;;;0.36;86.17;98806.10;111050;1263;22134;-77
2023/11/27 20:08:42;;;;;;;64.80;25.50;;;;;;;0.36;86.41;98808.98;111088;1267;22357;-75
2023/11/27 20:11:14;;;;;;;89.30;35.10;;;;;;;0.39;86.36;98805.61;111044;1262;22547;-76
2023/11/27 20:13:44;;;;;;;108.50;42.10;;;;;;;0.39;86.22;98808.73;110984;1262;22308;-75
2023/11/27 20:16:14;;;;;;;100.80;43.10;;;;;;;0.41;86.55;98804.91;111103;1263;22376;-76
2023/11/27 20:18:46;;;;;;;105.40;44.70;;;;;;;0.42;86.50;98799.40;111045;1263;22290;-75
2023/11/27 20:21:16;;;;;;;111.40;44.40;;;;;;;0.41;86.20;98800.83;111066;1270;22358;-75
2023/11/27 20:23:45;;;;;;;102.10;41.40;;;;;;;0.39;86.28;98801.13;111025;1270;22293;-78
2023/11/27 20:26:16;;;;;;;94.50;37.40;;;;;;;0.40;86.36;98792.41;111033;1263;22431;-75
2023/11/27 20:28:45;;;;;;;76.60;29.60;;;;;;;0.38;86.09;98789.94;111080;1256;23251;-77
2023/11/27 20:31:16;;;;;;;75.30;28.80;;;;;;;0.36;86.18;98786.48;111024;1263;22820;-76
2023/11/27 20:33:46;;;;;;;75.60;31.30;;;;;;;0.37;86.23;98780.34;111095;1263;22325;-78
2023/11/27 20:36:16;;;;;;;68.80;29.50;;;;;;;0.35;86.07;98776.71;111054;1263;22354;-76
2023/11/27 20:38:49;;;;;;;58.00;21.80;;;;;;;0.35;86.24;98773.71;111026;1262;23047;-76
2023/11/27 20:41:19;;;;;;;63.00;25.20;;;;;;;0.32;86.14;98771.02;111092;1266;22274;-75
2023/11/27 20:43:48;;;;;;;57.00;24.50;;;;;;;0.31;86.55;98767.13;108475;1269;25168;-75
2023/11/27 20:46:18;;;;;;;43.70;18.00;;;;;;;0.33;86.53;98758.61;108355;1263;22494;-75
2023/11/27 20:48:51;;;;;;;54.40;20.60;;;;;;;0.30;86.20;98759.47;108221;1262;25171;-74
2023/11/27 20:51:21;;;;;;;53.80;20.90;;;;;;;0.31;86.61;98756.64;108270;1264;25013;-81
2023/11/27 20:53:51;;;;;;;57.20;25.10;;;;;;;0.33;86.86;98749.27;107965;1263;22527;-82
2023/11/27 20:56:21;;;;;;;77.20;31.90;;;;;;;0.33;86.62;98753.64;108084;1263;24229;-75
2023/11/27 20:58:52;;;;;;;67.90;27.90;;;;;;;0.32;86.67;98751.55;108111;1267;22529;-75
2023/11/27 21:01:23;;;;;;;75.70;31.60;;;;;;;0.32;86.77;98748.84;108117;1263;22545;-75
2023/11/27 21:03:53;;;;;;;92.70;37.90;;;;;;;0.30;86.55;98743.39;108023;1270;22744;-75
2023/11/27 21:06:24;;;;;;;72.70;33.20;;;;;;;0.30;86.76;98742.33;108242;1263;22520;-75
2023/11/27 21:08:52;;;;;;;;;;;;;;;0.28;86.77;98738.95;108211;1269;25314;-74
2023/11/27 21:11:23;;;;;;;83.30;34.80;;;;;;;0.24;86.75;98733.60;108033;1270;24342;-76
2023/11/27 21:13:53;;;;;;;70.60;29.60;;;;;;;0.23;86.76;98731.77;108049;1270;25315;-75
2023/11/27 21:16:23;;;;;;;62.90;26.70;;;;;;;0.20;86.66;98730.91;107979;1248;25543;-76
2023/11/27 21:18:53;;;;;;;71.70;33.10;;;;;;;0.19;86.98;98726.48;108011;1270;24757;-76
2023/11/27 21:24:30;;;;;;;71.80;30.20;;;;;;;0.22;87.36;98726.75;109531;1269;24401;-74
2023/11/27 21:27:00;;;;;;;70.80;28.70;;;;;;;0.23;87.37;98726.33;107921;1268;24238;-76
2023/11/27 21:29:29;;;;;;;71.20;28.20;;;;;;;0.22;87.32;98727.73;108589;1269;23275;-75
2023/11/27 21:31:59;;;;;;;67.30;26.40;;;;;;;0.20;87.04;98725.77;108573;1275;22491;-75
2023/11/27 21:34:28;;;;;;;86.80;34.70;;;;;;;0.17;87.16;98723.48;108682;1269;23298;-75
2023/11/27 21:36:58;;;;;;;82.90;34.90;;;;;;;0.16;87.16;98720.70;108464;1272;22662;-74
2023/11/27 21:39:28;;;;;;;95.60;39.30;;;;;;;0.19;88.00;98717.79;108499;1272;26081;-75
2023/11/27 21:41:57;;;;;;;96.10;40.50;;;;;;;0.21;87.44;98715.52;107753;1272;21773;-76
2023/11/27 21:44:27;;;;;;;80.60;31.90;;;;;;;0.18;87.41;98715.62;107630;1271;24681;-77
2023/11/27 21:46:57;;;;;;;66.90;26.00;;;;;;;0.16;87.36;98712.88;107562;1270;22530;-74
2023/11/27 21:49:26;;;;;;;76.10;28.00;;;;;;;0.11;87.49;98703.24;107454;1269;22543;-75
2023/11/27 21:51:56;;;;;;;67.20;26.50;;;;;;;0.09;87.68;98703.92;107451;1275;21880;-75
2023/11/27 21:54:26;;;;;;;75.20;31.40;;;;;;;0.10;88.01;98699.76;107397;1271;22553;-76
2023/11/27 21:56:56;;;;;;;107.10;49.90;;;;;;;0.09;88.02;98696.48;107385;1276;24216;-75
2023/11/27 21:59:25;;;;;;;207.20;72.60;;;;;;;0.07;87.97;98693.19;107317;1274;22547;-77
2023/11/27 22:01:56;;;;;;;238.40;79.00;;;;;;;0.07;88.39;98690.14;107441;1275;22512;-75
2023/11/27 22:04:26;;;;;;;246.50;76.40;;;;;;;0.09;88.74;98686.70;107291;1269;22528;-74
2023/11/27 22:06:56;;;;;;;185.90;61.20;;;;;;;0.09;88.68;98688.65;110594;1271;22199;-77
2023/11/27 22:09:25;;;;;;;178.80;59.40;;;;;;;0.08;88.78;98685.14;110750;1273;22173;-76
2023/11/27 22:11:55;;;;;;;153.00;53.40;;;;;;;0.08;88.69;98680.84;110660;1271;22281;-76
2023/11/27 22:14:25;;;;;;;113.20;41.10;;;;;;;0.07;88.77;98675.17;110494;1269;22370;-75
2023/11/27 22:16:54;;;;;;;95.60;37.80;;;;;;;0.07;89.05;98673.19;110677;1275;22347;-76
2023/11/27 22:19:24;;;;;;;89.20;35.90;;;;;;;0.08;88.88;98670.35;110662;1269;22321;-77
2023/11/27 22:21:53;;;;;;;73.60;29.80;;;;;;;0.05;89.07;98667.17;110742;1275;22155;-75
2023/11/27 22:24:23;;;;;;;72.60;30.20;;;;;;;0.04;89.07;98664.77;110641;1272;22098;-76
2023/11/27 22:26:53;;;;;;;74.30;30.30;;;;;;;0.01;89.15;98659.61;110536;1271;21968;-75
2023/11/27 22:29:22;;;;;;;75.10;32.80;;;;;;;-0.01;89.08;98655.54;108297;1275;24366;-75
